Hopkinton, New York
Current Conditions -  °F | °C
As of 6:53 PM on Saturday 25 Oct 2014 (Local Time) from KMSS Reporting Station
Haze Haze  
Wind Chill: 51°   Ceiling: Unl
Heat Index: 51°   Visibility: 6mi
Dew Point: 50°   Wind: 9mph
Humidity: 96%   Direction: 220°SW
Pressure: 29.48"   Gusts: NA
Location:  44.7195°N, 74.6501°W
Report Text: KMSS 252253Z AUTO 22008KT 6SM BR CLR 11/10 A2948 RMK AO2 SLP985 T01060100
Loading
Personal Weather Stations






























Interactive Weather Map
Tropical Storm Tracking
New forecast layout! Learn more

10-Day Weather Forecast

Advertisements
Track Severe Weather on mobile